sensor_id;sensor_type;location;lat;lon;timestamp;P1;durP1;ratioP1;P2;durP2;ratioP2
21848;SDS011;11089;49.852;19.700;2022-07-31T00:02:55;17.23;;;10.20;;
21848;SDS011;11089;49.852;19.700;2022-07-31T00:05:57;17.42;;;10.60;;
21848;SDS011;11089;49.852;19.700;2022-07-31T00:08:58;18.55;;;9.65;;
21848;SDS011;11089;49.852;19.700;2022-07-31T00:11:58;17.90;;;9.80;;
21848;SDS011;11089;49.852;19.700;2022-07-31T00:15:02;16.40;;;9.38;;
21848;SDS011;11089;49.852;19.700;2022-07-31T00:18:06;16.85;;;9.43;;
21848;SDS011;11089;49.852;19.700;2022-07-31T00:21:07;13.00;;;7.55;;
21848;SDS011;11089;49.852;19.700;2022-07-31T00:24:09;14.40;;;7.70;;
21848;SDS011;11089;49.852;19.700;2022-07-31T00:27:10;17.30;;;8.40;;
21848;SDS011;11089;49.852;19.700;2022-07-31T00:30:11;14.95;;;8.18;;
21848;SDS011;11089;49.852;19.700;2022-07-31T00:33:13;12.27;;;7.40;;
21848;SDS011;11089;49.852;19.700;2022-07-31T00:36:14;10.50;;;6.57;;
21848;SDS011;11089;49.852;19.700;2022-07-31T00:39:15;11.13;;;6.07;;
21848;SDS011;11089;49.852;19.700;2022-07-31T00:42:19;11.90;;;6.85;;
21848;SDS011;11089;49.852;19.700;2022-07-31T00:45:21;11.60;;;6.47;;
21848;SDS011;11089;49.852;19.700;2022-07-31T00:48:23;10.55;;;5.95;;
21848;SDS011;11089;49.852;19.700;2022-07-31T00:51:24;7.57;;;4.68;;
21848;SDS011;11089;49.852;19.700;2022-07-31T00:54:25;8.75;;;5.22;;
21848;SDS011;11089;49.852;19.700;2022-07-31T00:57:26;9.25;;;4.70;;
21848;SDS011;11089;49.852;19.700;2022-07-31T01:00:27;7.03;;;4.35;;
21848;SDS011;11089;49.852;19.700;2022-07-31T01:03:28;7.18;;;4.07;;
21848;SDS011;11089;49.852;19.700;2022-07-31T01:06:30;8.13;;;4.20;;
21848;SDS011;11089;49.852;19.700;2022-07-31T01:09:31;6.55;;;3.80;;
21848;SDS011;11089;49.852;19.700;2022-07-31T01:12:34;7.93;;;3.92;;
21848;SDS011;11089;49.852;19.700;2022-07-31T01:15:44;5.90;;;3.40;;
21848;SDS011;11089;49.852;19.700;2022-07-31T01:18:46;4.13;;;3.50;;
21848;SDS011;11089;49.852;19.700;2022-07-31T01:21:52;6.70;;;3.80;;
21848;SDS011;11089;49.852;19.700;2022-07-31T01:31:10;3.85;;;3.15;;
21848;SDS011;11089;49.852;19.700;2022-07-31T01:37:43;2.70;;;2.25;;
21848;SDS011;11089;49.852;19.700;2022-07-31T01:40:50;3.10;;;2.15;;
21848;SDS011;11089;49.852;19.700;2022-07-31T01:44:00;3.05;;;1.90;;
21848;SDS011;11089;49.852;19.700;2022-07-31T01:47:05;5.10;;;2.13;;
21848;SDS011;11089;49.852;19.700;2022-07-31T01:50:07;4.32;;;1.52;;
21848;SDS011;11089;49.852;19.700;2022-07-31T01:53:11;4.97;;;1.50;;
21848;SDS011;11089;49.852;19.700;2022-07-31T01:56:15;2.63;;;1.35;;
21848;SDS011;11089;49.852;19.700;2022-07-31T01:59:17;6.45;;;1.60;;
21848;SDS011;11089;49.852;19.700;2022-07-31T02:02:19;2.00;;;1.42;;
21848;SDS011;11089;49.852;19.700;2022-07-31T02:05:22;2.05;;;1.10;;
21848;SDS011;11089;49.852;19.700;2022-07-31T02:08:24;1.50;;;1.20;;
21848;SDS011;11089;49.852;19.700;2022-07-31T02:11:27;6.20;;;1.90;;
21848;SDS011;11089;49.852;19.700;2022-07-31T02:14:28;1.77;;;1.00;;
21848;SDS011;11089;49.852;19.700;2022-07-31T02:17:30;2.83;;;1.08;;
21848;SDS011;11089;49.852;19.700;2022-07-31T02:20:32;1.73;;;1.00;;
21848;SDS011;11089;49.852;19.700;2022-07-31T02:23:34;1.30;;;0.90;;
21848;SDS011;11089;49.852;19.700;2022-07-31T02:26:35;4.88;;;1.40;;
21848;SDS011;11089;49.852;19.700;2022-07-31T02:29:38;3.35;;;1.00;;
21848;SDS011;11089;49.852;19.700;2022-07-31T02:32:41;1.20;;;1.10;;
21848;SDS011;11089;49.852;19.700;2022-07-31T02:35:45;1.88;;;1.05;;
21848;SDS011;11089;49.852;19.700;2022-07-31T02:38:53;2.70;;;1.00;;
21848;SDS011;11089;49.852;19.700;2022-07-31T02:41:55;1.77;;;0.80;;
21848;SDS011;11089;49.852;19.700;2022-07-31T02:45:00;1.20;;;1.10;;
21848;SDS011;11089;49.852;19.700;2022-07-31T02:48:02;2.22;;;1.00;;
21848;SDS011;11089;49.852;19.700;2022-07-31T02:51:04;1.02;;;0.90;;
21848;SDS011;11089;49.852;19.700;2022-07-31T02:54:05;3.13;;;0.90;;
21848;SDS011;11089;49.852;19.700;2022-07-31T02:57:06;1.10;;;1.00;;
21848;SDS011;11089;49.852;19.700;2022-07-31T03:00:14;2.50;;;1.10;;
21848;SDS011;11089;49.852;19.700;2022-07-31T03:03:26;1.63;;;0.90;;
21848;SDS011;11089;49.852;19.700;2022-07-31T03:06:27;1.92;;;0.95;;
21848;SDS011;11089;49.852;19.700;2022-07-31T03:09:28;1.55;;;0.93;;
21848;SDS011;11089;49.852;19.700;2022-07-31T03:12:29;2.33;;;0.98;;
21848;SDS011;11089;49.852;19.700;2022-07-31T03:15:31;1.30;;;1.20;;
21848;SDS011;11089;49.852;19.700;2022-07-31T03:18:33;1.90;;;1.15;;
21848;SDS011;11089;49.852;19.700;2022-07-31T03:21:35;2.90;;;1.20;;
21848;SDS011;11089;49.852;19.700;2022-07-31T03:24:37;2.88;;;1.20;;
21848;SDS011;11089;49.852;19.700;2022-07-31T03:27:38;2.03;;;1.30;;
21848;SDS011;11089;49.852;19.700;2022-07-31T03:30:39;1.40;;;1.30;;
21848;SDS011;11089;49.852;19.700;2022-07-31T03:33:40;1.42;;;1.27;;
21848;SDS011;11089;49.852;19.700;2022-07-31T03:36:41;1.50;;;1.20;;
21848;SDS011;11089;49.852;19.700;2022-07-31T03:39:43;2.50;;;1.13;;
21848;SDS011;11089;49.852;19.700;2022-07-31T03:42:45;2.05;;;1.20;;
21848;SDS011;11089;49.852;19.700;2022-07-31T03:45:48;3.33;;;1.20;;
21848;SDS011;11089;49.852;19.700;2022-07-31T03:48:51;2.78;;;1.35;;
21848;SDS011;11089;49.852;19.700;2022-07-31T03:51:52;2.83;;;0.90;;
21848;SDS011;11089;49.852;19.700;2022-07-31T03:54:54;0.82;;;0.82;;
21848;SDS011;11089;49.852;19.700;2022-07-31T03:57:55;1.67;;;0.80;;
21848;SDS011;11089;49.852;19.700;2022-07-31T04:00:57;1.08;;;0.98;;
21848;SDS011;11089;49.852;19.700;2022-07-31T04:03:58;0.90;;;0.80;;
21848;SDS011;11089;49.852;19.700;2022-07-31T04:07:00;1.30;;;1.15;;
21848;SDS011;11089;49.852;19.700;2022-07-31T04:10:01;0.98;;;0.70;;
21848;SDS011;11089;49.852;19.700;2022-07-31T04:13:02;4.53;;;0.80;;
21848;SDS011;11089;49.852;19.700;2022-07-31T04:16:04;3.17;;;0.77;;
21848;SDS011;11089;49.852;19.700;2022-07-31T04:19:04;0.60;;;0.60;;
21848;SDS011;11089;49.852;19.700;2022-07-31T04:22:06;1.00;;;0.70;;
21848;SDS011;11089;49.852;19.700;2022-07-31T04:25:07;1.13;;;0.60;;
21848;SDS011;11089;49.852;19.700;2022-07-31T04:28:08;2.70;;;0.70;;
21848;SDS011;11089;49.852;19.700;2022-07-31T04:31:09;0.70;;;0.70;;
21848;SDS011;11089;49.852;19.700;2022-07-31T04:34:10;0.63;;;0.63;;
21848;SDS011;11089;49.852;19.700;2022-07-31T04:37:11;1.42;;;0.85;;
21848;SDS011;11089;49.852;19.700;2022-07-31T04:40:12;1.05;;;0.80;;
21848;SDS011;11089;49.852;19.700;2022-07-31T04:43:13;0.70;;;0.70;;
21848;SDS011;11089;49.852;19.700;2022-07-31T04:46:15;1.00;;;0.90;;
21848;SDS011;11089;49.852;19.700;2022-07-31T04:49:16;0.80;;;0.80;;
21848;SDS011;11089;49.852;19.700;2022-07-31T04:52:17;2.10;;;1.17;;
21848;SDS011;11089;49.852;19.700;2022-07-31T04:55:18;0.77;;;0.77;;
21848;SDS011;11089;49.852;19.700;2022-07-31T04:58:20;2.25;;;0.70;;
21848;SDS011;11089;49.852;19.700;2022-07-31T05:01:21;0.75;;;0.65;;
21848;SDS011;11089;49.852;19.700;2022-07-31T05:04:22;3.25;;;0.80;;
21848;SDS011;11089;49.852;19.700;2022-07-31T05:07:24;2.10;;;0.80;;
21848;SDS011;11089;49.852;19.700;2022-07-31T05:10:25;2.00;;;0.60;;
21848;SDS011;11089;49.852;19.700;2022-07-31T05:13:40;1.83;;;0.60;;
21848;SDS011;11089;49.852;19.700;2022-07-31T05:16:41;0.80;;;0.60;;
21848;SDS011;11089;49.852;19.700;2022-07-31T05:19:42;0.57;;;0.57;;
21848;SDS011;11089;49.852;19.700;2022-07-31T05:22:43;0.80;;;0.60;;
21848;SDS011;11089;49.852;19.700;2022-07-31T05:25:44;1.27;;;0.60;;
21848;SDS011;11089;49.852;19.700;2022-07-31T05:28:45;1.02;;;0.60;;
21848;SDS011;11089;49.852;19.700;2022-07-31T05:31:48;5.43;;;0.70;;
21848;SDS011;11089;49.852;19.700;2022-07-31T05:34:50;0.63;;;0.63;;
21848;SDS011;11089;49.852;19.700;2022-07-31T05:37:51;2.95;;;0.70;;
21848;SDS011;11089;49.852;19.700;2022-07-31T05:40:52;1.55;;;0.75;;
21848;SDS011;11089;49.852;19.700;2022-07-31T05:43:53;0.70;;;0.70;;
21848;SDS011;11089;49.852;19.700;2022-07-31T05:46:54;0.77;;;0.70;;
21848;SDS011;11089;49.852;19.700;2022-07-31T05:49:55;0.90;;;0.90;;
21848;SDS011;11089;49.852;19.700;2022-07-31T05:52:56;1.15;;;0.70;;
21848;SDS011;11089;49.852;19.700;2022-07-31T05:55:57;0.65;;;0.65;;
21848;SDS011;11089;49.852;19.700;2022-07-31T05:58:58;0.73;;;0.60;;
21848;SDS011;11089;49.852;19.700;2022-07-31T06:01:59;0.98;;;0.80;;
21848;SDS011;11089;49.852;19.700;2022-07-31T06:05:00;2.78;;;0.93;;
21848;SDS011;11089;49.852;19.700;2022-07-31T06:08:01;3.35;;;0.77;;
21848;SDS011;11089;49.852;19.700;2022-07-31T06:11:02;0.70;;;0.60;;
21848;SDS011;11089;49.852;19.700;2022-07-31T06:14:03;1.90;;;0.82;;
21848;SDS011;11089;49.852;19.700;2022-07-31T06:17:04;0.73;;;0.73;;
21848;SDS011;11089;49.852;19.700;2022-07-31T06:20:06;0.63;;;0.50;;
21848;SDS011;11089;49.852;19.700;2022-07-31T06:23:08;0.47;;;0.40;;
21848;SDS011;11089;49.852;19.700;2022-07-31T06:26:09;1.70;;;0.50;;
21848;SDS011;11089;49.852;19.700;2022-07-31T06:29:11;0.50;;;0.50;;
21848;SDS011;11089;49.852;19.700;2022-07-31T06:32:12;0.80;;;0.50;;
21848;SDS011;11089;49.852;19.700;2022-07-31T06:35:13;0.63;;;0.60;;
21848;SDS011;11089;49.852;19.700;2022-07-31T06:38:14;0.70;;;0.70;;
21848;SDS011;11089;49.852;19.700;2022-07-31T06:41:15;1.08;;;0.55;;
21848;SDS011;11089;49.852;19.700;2022-07-31T06:44:30;1.95;;;0.80;;
21848;SDS011;11089;49.852;19.700;2022-07-31T06:47:32;2.20;;;0.77;;
21848;SDS011;11089;49.852;19.700;2022-07-31T06:50:32;1.38;;;0.77;;
21848;SDS011;11089;49.852;19.700;2022-07-31T06:53:33;3.53;;;1.27;;
21848;SDS011;11089;49.852;19.700;2022-07-31T06:56:35;4.88;;;1.35;;
21848;SDS011;11089;49.852;19.700;2022-07-31T06:59:36;1.75;;;0.60;;
21848;SDS011;11089;49.852;19.700;2022-07-31T07:02:37;0.70;;;0.70;;
21848;SDS011;11089;49.852;19.700;2022-07-31T07:05:38;1.10;;;0.68;;
21848;SDS011;11089;49.852;19.700;2022-07-31T07:08:39;1.00;;;0.80;;
21848;SDS011;11089;49.852;19.700;2022-07-31T07:11:40;1.92;;;0.90;;
21848;SDS011;11089;49.852;19.700;2022-07-31T07:14:41;0.70;;;0.70;;
21848;SDS011;11089;49.852;19.700;2022-07-31T07:17:42;1.73;;;0.90;;
21848;SDS011;11089;49.852;19.700;2022-07-31T07:20:43;2.63;;;1.10;;
21848;SDS011;11089;49.852;19.700;2022-07-31T07:23:44;1.20;;;1.10;;
21848;SDS011;11089;49.852;19.700;2022-07-31T07:26:45;3.30;;;1.20;;
21848;SDS011;11089;49.852;19.700;2022-07-31T07:29:46;1.13;;;1.02;;
21848;SDS011;11089;49.852;19.700;2022-07-31T07:32:47;2.42;;;1.38;;
21848;SDS011;11089;49.852;19.700;2022-07-31T07:35:48;2.25;;;1.10;;
21848;SDS011;11089;49.852;19.700;2022-07-31T07:38:49;1.52;;;1.15;;
21848;SDS011;11089;49.852;19.700;2022-07-31T07:41:51;1.33;;;1.17;;
21848;SDS011;11089;49.852;19.700;2022-07-31T07:44:52;1.95;;;1.00;;
21848;SDS011;11089;49.852;19.700;2022-07-31T07:47:53;1.25;;;1.15;;
21848;SDS011;11089;49.852;19.700;2022-07-31T07:50:54;2.00;;;1.20;;
21848;SDS011;11089;49.852;19.700;2022-07-31T07:53:55;1.17;;;0.90;;
21848;SDS011;11089;49.852;19.700;2022-07-31T07:56:56;1.23;;;1.10;;
21848;SDS011;11089;49.852;19.700;2022-07-31T08:00:04;0.98;;;0.88;;
21848;SDS011;11089;49.852;19.700;2022-07-31T08:03:07;0.93;;;0.90;;
21848;SDS011;11089;49.852;19.700;2022-07-31T08:06:08;2.83;;;1.15;;
21848;SDS011;11089;49.852;19.700;2022-07-31T08:09:09;3.20;;;1.10;;
21848;SDS011;11089;49.852;19.700;2022-07-31T08:12:10;3.17;;;1.42;;
21848;SDS011;11089;49.852;19.700;2022-07-31T08:15:11;3.17;;;2.15;;
21848;SDS011;11089;49.852;19.700;2022-07-31T08:18:12;6.20;;;2.90;;
21848;SDS011;11089;49.852;19.700;2022-07-31T08:21:13;48.22;;;12.38;;
21848;SDS011;11089;49.852;19.700;2022-07-31T08:24:14;20.38;;;7.03;;
21848;SDS011;11089;49.852;19.700;2022-07-31T08:27:16;85.20;;;28.17;;
21848;SDS011;11089;49.852;19.700;2022-07-31T08:30:30;25.00;;;11.32;;
21848;SDS011;11089;49.852;19.700;2022-07-31T08:33:31;10.13;;;4.72;;
21848;SDS011;11089;49.852;19.700;2022-07-31T08:36:34;5.35;;;2.83;;
21848;SDS011;11089;49.852;19.700;2022-07-31T08:39:36;15.13;;;7.05;;
21848;SDS011;11089;49.852;19.700;2022-07-31T08:42:37;20.33;;;7.20;;
21848;SDS011;11089;49.852;19.700;2022-07-31T08:45:41;33.45;;;12.52;;
21848;SDS011;11089;49.852;19.700;2022-07-31T08:48:43;14.30;;;7.30;;
21848;SDS011;11089;49.852;19.700;2022-07-31T08:51:45;16.10;;;5.30;;
21848;SDS011;11089;49.852;19.700;2022-07-31T08:54:48;7.93;;;3.75;;
21848;SDS011;11089;49.852;19.700;2022-07-31T08:57:50;22.17;;;7.53;;
21848;SDS011;11089;49.852;19.700;2022-07-31T09:00:52;26.25;;;9.07;;
21848;SDS011;11089;49.852;19.700;2022-07-31T09:03:53;18.55;;;7.07;;
21848;SDS011;11089;49.852;19.700;2022-07-31T09:06:55;10.75;;;5.00;;
21848;SDS011;11089;49.852;19.700;2022-07-31T09:09:59;9.50;;;4.07;;
21848;SDS011;11089;49.852;19.700;2022-07-31T09:13:10;11.20;;;5.43;;
21848;SDS011;11089;49.852;19.700;2022-07-31T09:16:15;8.68;;;5.43;;
21848;SDS011;11089;49.852;19.700;2022-07-31T09:19:16;16.98;;;7.88;;
21848;SDS011;11089;49.852;19.700;2022-07-31T09:22:23;5.95;;;3.70;;
21848;SDS011;11089;49.852;19.700;2022-07-31T09:25:26;7.85;;;3.97;;
21848;SDS011;11089;49.852;19.700;2022-07-31T09:28:33;5.25;;;3.63;;
21848;SDS011;11089;49.852;19.700;2022-07-31T09:31:41;4.07;;;2.60;;
21848;SDS011;11089;49.852;19.700;2022-07-31T09:34:42;5.07;;;3.00;;
21848;SDS011;11089;49.852;19.700;2022-07-31T09:37:47;2.85;;;2.17;;
21848;SDS011;11089;49.852;19.700;2022-07-31T09:40:48;2.95;;;2.53;;
21848;SDS011;11089;49.852;19.700;2022-07-31T09:43:54;3.22;;;2.85;;
21848;SDS011;11089;49.852;19.700;2022-07-31T09:46:55;3.33;;;2.40;;
21848;SDS011;11089;49.852;19.700;2022-07-31T09:49:57;5.35;;;3.63;;
21848;SDS011;11089;49.852;19.700;2022-07-31T09:53:00;6.95;;;3.28;;
21848;SDS011;11089;49.852;19.700;2022-07-31T09:56:01;6.00;;;2.50;;
21848;SDS011;11089;49.852;19.700;2022-07-31T09:59:02;7.63;;;3.58;;
21848;SDS011;11089;49.852;19.700;2022-07-31T10:02:06;8.48;;;4.38;;
21848;SDS011;11089;49.852;19.700;2022-07-31T10:05:09;7.93;;;3.40;;
21848;SDS011;11089;49.852;19.700;2022-07-31T10:08:11;4.25;;;2.50;;
21848;SDS011;11089;49.852;19.700;2022-07-31T10:11:14;3.40;;;2.40;;
21848;SDS011;11089;49.852;19.700;2022-07-31T10:14:37;3.80;;;2.85;;
21848;SDS011;11089;49.852;19.700;2022-07-31T10:17:43;5.80;;;2.65;;
21848;SDS011;11089;49.852;19.700;2022-07-31T10:20:48;3.00;;;2.30;;
21848;SDS011;11089;49.852;19.700;2022-07-31T10:23:53;5.28;;;2.85;;
21848;SDS011;11089;49.852;19.700;2022-07-31T10:26:55;10.60;;;4.82;;
21848;SDS011;11089;49.852;19.700;2022-07-31T10:30:00;9.18;;;4.43;;
21848;SDS011;11089;49.852;19.700;2022-07-31T10:33:02;4.93;;;2.42;;
21848;SDS011;11089;49.852;19.700;2022-07-31T10:36:26;5.88;;;3.15;;
21848;SDS011;11089;49.852;19.700;2022-07-31T10:39:30;7.63;;;3.63;;
21848;SDS011;11089;49.852;19.700;2022-07-31T10:42:45;6.45;;;3.65;;
21848;SDS011;11089;49.852;19.700;2022-07-31T10:46:02;4.95;;;2.67;;
21848;SDS011;11089;49.852;19.700;2022-07-31T10:49:03;4.57;;;2.58;;
21848;SDS011;11089;49.852;19.700;2022-07-31T10:52:04;4.20;;;2.53;;
21848;SDS011;11089;49.852;19.700;2022-07-31T10:58:22;4.50;;;2.53;;
21848;SDS011;11089;49.852;19.700;2022-07-31T11:01:24;4.35;;;2.20;;
21848;SDS011;11089;49.852;19.700;2022-07-31T11:04:26;5.07;;;2.90;;
21848;SDS011;11089;49.852;19.700;2022-07-31T11:07:29;12.02;;;4.82;;
21848;SDS011;11089;49.852;19.700;2022-07-31T11:10:30;2.85;;;2.08;;
21848;SDS011;11089;49.852;19.700;2022-07-31T11:13:43;6.28;;;3.05;;
21848;SDS011;11089;49.852;19.700;2022-07-31T11:16:52;9.32;;;4.18;;
21848;SDS011;11089;49.852;19.700;2022-07-31T11:19:54;3.75;;;2.50;;
21848;SDS011;11089;49.852;19.700;2022-07-31T11:23:00;2.60;;;1.50;;
21848;SDS011;11089;49.852;19.700;2022-07-31T11:26:04;1.90;;;1.60;;
21848;SDS011;11089;49.852;19.700;2022-07-31T11:29:07;1.20;;;1.10;;
21848;SDS011;11089;49.852;19.700;2022-07-31T11:32:15;1.60;;;1.50;;
21848;SDS011;11089;49.852;19.700;2022-07-31T11:35:27;2.10;;;1.50;;
21848;SDS011;11089;49.852;19.700;2022-07-31T11:38:29;2.70;;;1.15;;
21848;SDS011;11089;49.852;19.700;2022-07-31T11:41:30;2.58;;;1.20;;
21848;SDS011;11089;49.852;19.700;2022-07-31T11:44:31;1.77;;;1.30;;
21848;SDS011;11089;49.852;19.700;2022-07-31T11:47:45;3.03;;;1.50;;
21848;SDS011;11089;49.852;19.700;2022-07-31T11:50:47;1.70;;;1.10;;
21848;SDS011;11089;49.852;19.700;2022-07-31T11:53:50;2.00;;;1.10;;
21848;SDS011;11089;49.852;19.700;2022-07-31T11:56:52;5.35;;;1.73;;
21848;SDS011;11089;49.852;19.700;2022-07-31T11:59:53;3.65;;;1.83;;
21848;SDS011;11089;49.852;19.700;2022-07-31T12:02:55;8.20;;;3.42;;
21848;SDS011;11089;49.852;19.700;2022-07-31T12:05:57;3.83;;;1.58;;
21848;SDS011;11089;49.852;19.700;2022-07-31T12:08:58;5.65;;;2.00;;
21848;SDS011;11089;49.852;19.700;2022-07-31T12:11:59;9.35;;;2.72;;
21848;SDS011;11089;49.852;19.700;2022-07-31T12:15:11;5.28;;;1.15;;
21848;SDS011;11089;49.852;19.700;2022-07-31T12:18:12;40.53;;;12.13;;
21848;SDS011;11089;49.852;19.700;2022-07-31T12:21:13;16.05;;;6.40;;
21848;SDS011;11089;49.852;19.700;2022-07-31T12:24:15;22.27;;;11.93;;
21848;SDS011;11089;49.852;19.700;2022-07-31T12:27:16;6.15;;;3.90;;
21848;SDS011;11089;49.852;19.700;2022-07-31T12:30:17;4.25;;;3.20;;
21848;SDS011;11089;49.852;19.700;2022-07-31T12:33:19;3.15;;;2.85;;
21848;SDS011;11089;49.852;19.700;2022-07-31T12:36:20;2.88;;;2.58;;
21848;SDS011;11089;49.852;19.700;2022-07-31T12:39:20;4.35;;;2.38;;
21848;SDS011;11089;49.852;19.700;2022-07-31T12:45:27;2.38;;;1.95;;
21848;SDS011;11089;49.852;19.700;2022-07-31T12:48:30;2.42;;;1.60;;
21848;SDS011;11089;49.852;19.700;2022-07-31T12:51:32;2.60;;;2.20;;
21848;SDS011;11089;49.852;19.700;2022-07-31T12:54:35;4.45;;;2.10;;
21848;SDS011;11089;49.852;19.700;2022-07-31T12:57:36;1.75;;;1.60;;
21848;SDS011;11089;49.852;19.700;2022-07-31T13:00:37;2.67;;;2.05;;
21848;SDS011;11089;49.852;19.700;2022-07-31T13:03:38;1.50;;;1.40;;
21848;SDS011;11089;49.852;19.700;2022-07-31T13:06:39;0.80;;;0.80;;
21848;SDS011;11089;49.852;19.700;2022-07-31T13:09:40;1.20;;;1.00;;
21848;SDS011;11089;49.852;19.700;2022-07-31T13:12:40;1.40;;;1.30;;
21848;SDS011;11089;49.852;19.700;2022-07-31T13:15:42;1.73;;;1.08;;
21848;SDS011;11089;49.852;19.700;2022-07-31T13:18:43;1.40;;;1.30;;
21848;SDS011;11089;49.852;19.700;2022-07-31T13:21:43;1.23;;;1.13;;
21848;SDS011;11089;49.852;19.700;2022-07-31T13:24:45;0.95;;;0.85;;
21848;SDS011;11089;49.852;19.700;2022-07-31T13:27:46;1.15;;;1.05;;
21848;SDS011;11089;49.852;19.700;2022-07-31T13:30:47;1.58;;;1.48;;
21848;SDS011;11089;49.852;19.700;2022-07-31T13:33:48;1.58;;;1.20;;
21848;SDS011;11089;49.852;19.700;2022-07-31T13:36:49;1.30;;;1.20;;
21848;SDS011;11089;49.852;19.700;2022-07-31T13:39:50;2.10;;;0.90;;
21848;SDS011;11089;49.852;19.700;2022-07-31T13:42:51;1.52;;;1.20;;
21848;SDS011;11089;49.852;19.700;2022-07-31T13:45:52;1.48;;;1.38;;
21848;SDS011;11089;49.852;19.700;2022-07-31T13:48:53;4.53;;;2.63;;
21848;SDS011;11089;49.852;19.700;2022-07-31T13:51:55;9.43;;;4.97;;
21848;SDS011;11089;49.852;19.700;2022-07-31T13:54:57;8.05;;;5.03;;
21848;SDS011;11089;49.852;19.700;2022-07-31T13:57:58;4.25;;;3.40;;
21848;SDS011;11089;49.852;19.700;2022-07-31T14:00:59;6.25;;;3.42;;
21848;SDS011;11089;49.852;19.700;2022-07-31T14:04:00;3.80;;;2.78;;
21848;SDS011;11089;49.852;19.700;2022-07-31T14:07:01;3.35;;;1.80;;
21848;SDS011;11089;49.852;19.700;2022-07-31T14:10:03;4.18;;;3.28;;
21848;SDS011;11089;49.852;19.700;2022-07-31T14:13:04;4.97;;;3.95;;
21848;SDS011;11089;49.852;19.700;2022-07-31T14:16:05;4.38;;;3.80;;
21848;SDS011;11089;49.852;19.700;2022-07-31T14:19:06;5.38;;;3.40;;
21848;SDS011;11089;49.852;19.700;2022-07-31T14:22:07;4.55;;;3.20;;
21848;SDS011;11089;49.852;19.700;2022-07-31T14:25:09;4.57;;;3.95;;
21848;SDS011;11089;49.852;19.700;2022-07-31T14:28:11;5.03;;;3.88;;
21848;SDS011;11089;49.852;19.700;2022-07-31T14:31:13;5.00;;;4.47;;
21848;SDS011;11089;49.852;19.700;2022-07-31T14:34:15;6.43;;;4.97;;
21848;SDS011;11089;49.852;19.700;2022-07-31T14:37:16;7.13;;;5.68;;
21848;SDS011;11089;49.852;19.700;2022-07-31T14:40:19;7.38;;;5.65;;
21848;SDS011;11089;49.852;19.700;2022-07-31T14:43:20;9.30;;;5.88;;
21848;SDS011;11089;49.852;19.700;2022-07-31T14:46:21;9.20;;;6.53;;
21848;SDS011;11089;49.852;19.700;2022-07-31T14:49:21;11.10;;;6.78;;
21848;SDS011;11089;49.852;19.700;2022-07-31T14:52:22;10.38;;;7.18;;
21848;SDS011;11089;49.852;19.700;2022-07-31T14:55:24;8.52;;;6.40;;
21848;SDS011;11089;49.852;19.700;2022-07-31T14:58:28;7.22;;;5.93;;
21848;SDS011;11089;49.852;19.700;2022-07-31T15:01:28;7.03;;;5.82;;
21848;SDS011;11089;49.852;19.700;2022-07-31T15:04:29;6.65;;;5.68;;
21848;SDS011;11089;49.852;19.700;2022-07-31T15:07:31;6.32;;;5.57;;
21848;SDS011;11089;49.852;19.700;2022-07-31T15:10:32;5.88;;;5.00;;
21848;SDS011;11089;49.852;19.700;2022-07-31T15:13:33;5.50;;;4.93;;
21848;SDS011;11089;49.852;19.700;2022-07-31T15:16:34;9.55;;;4.32;;
21848;SDS011;11089;49.852;19.700;2022-07-31T15:19:34;6.45;;;4.22;;
21848;SDS011;11089;49.852;19.700;2022-07-31T15:22:35;6.38;;;4.70;;
21848;SDS011;11089;49.852;19.700;2022-07-31T15:25:36;5.50;;;4.35;;
21848;SDS011;11089;49.852;19.700;2022-07-31T15:28:37;5.10;;;4.60;;
21848;SDS011;11089;49.852;19.700;2022-07-31T15:31:38;5.25;;;4.70;;
21848;SDS011;11089;49.852;19.700;2022-07-31T15:34:39;6.60;;;5.50;;
21848;SDS011;11089;49.852;19.700;2022-07-31T15:37:41;6.20;;;5.07;;
21848;SDS011;11089;49.852;19.700;2022-07-31T15:40:45;6.45;;;4.80;;
21848;SDS011;11089;49.852;19.700;2022-07-31T15:43:48;6.45;;;5.43;;
21848;SDS011;11089;49.852;19.700;2022-07-31T15:46:49;10.00;;;5.55;;
21848;SDS011;11089;49.852;19.700;2022-07-31T15:49:50;5.72;;;4.80;;
21848;SDS011;11089;49.852;19.700;2022-07-31T15:52:51;5.57;;;4.85;;
21848;SDS011;11089;49.852;19.700;2022-07-31T15:55:52;5.45;;;4.95;;
21848;SDS011;11089;49.852;19.700;2022-07-31T15:58:53;5.20;;;4.68;;
21848;SDS011;11089;49.852;19.700;2022-07-31T16:01:54;4.45;;;3.92;;
21848;SDS011;11089;49.852;19.700;2022-07-31T16:04:55;4.75;;;4.25;;
21848;SDS011;11089;49.852;19.700;2022-07-31T16:07:56;3.97;;;3.65;;
21848;SDS011;11089;49.852;19.700;2022-07-31T16:10:57;4.35;;;3.95;;
21848;SDS011;11089;49.852;19.700;2022-07-31T16:13:58;4.70;;;3.97;;
21848;SDS011;11089;49.852;19.700;2022-07-31T16:16:59;5.28;;;4.28;;
21848;SDS011;11089;49.852;19.700;2022-07-31T16:20:00;7.30;;;4.30;;
21848;SDS011;11089;49.852;19.700;2022-07-31T16:23:01;4.20;;;3.80;;
21848;SDS011;11089;49.852;19.700;2022-07-31T16:26:02;4.65;;;4.25;;
21848;SDS011;11089;49.852;19.700;2022-07-31T16:29:02;4.65;;;4.25;;
21848;SDS011;11089;49.852;19.700;2022-07-31T16:32:03;4.75;;;4.20;;
21848;SDS011;11089;49.852;19.700;2022-07-31T16:35:05;4.97;;;4.47;;
21848;SDS011;11089;49.852;19.700;2022-07-31T16:38:07;4.25;;;3.85;;
21848;SDS011;11089;49.852;19.700;2022-07-31T16:41:07;5.13;;;3.72;;
21848;SDS011;11089;49.852;19.700;2022-07-31T16:44:08;4.65;;;3.85;;
21848;SDS011;11089;49.852;19.700;2022-07-31T16:47:09;4.43;;;4.03;;
21848;SDS011;11089;49.852;19.700;2022-07-31T16:50:10;4.88;;;3.75;;
21848;SDS011;11089;49.852;19.700;2022-07-31T16:53:11;6.47;;;4.85;;
21848;SDS011;11089;49.852;19.700;2022-07-31T16:56:13;4.90;;;4.40;;
21848;SDS011;11089;49.852;19.700;2022-07-31T16:59:14;11.10;;;4.38;;
21848;SDS011;11089;49.852;19.700;2022-07-31T17:02:15;5.03;;;3.60;;
21848;SDS011;11089;49.852;19.700;2022-07-31T17:05:16;5.05;;;3.30;;
21848;SDS011;11089;49.852;19.700;2022-07-31T17:08:17;6.70;;;3.63;;
21848;SDS011;11089;49.852;19.700;2022-07-31T17:11:18;3.90;;;3.50;;
21848;SDS011;11089;49.852;19.700;2022-07-31T17:14:20;4.25;;;3.60;;
21848;SDS011;11089;49.852;19.700;2022-07-31T17:17:24;5.13;;;3.88;;
21848;SDS011;11089;49.852;19.700;2022-07-31T17:20:25;4.10;;;3.70;;
21848;SDS011;11089;49.852;19.700;2022-07-31T17:23:26;8.07;;;4.97;;
21848;SDS011;11089;49.852;19.700;2022-07-31T17:26:27;9.82;;;6.13;;
21848;SDS011;11089;49.852;19.700;2022-07-31T17:29:28;8.85;;;7.60;;
21848;SDS011;11089;49.852;19.700;2022-07-31T17:32:30;9.93;;;6.97;;
21848;SDS011;11089;49.852;19.700;2022-07-31T17:35:31;9.45;;;7.05;;
21848;SDS011;11089;49.852;19.700;2022-07-31T17:38:33;11.23;;;6.80;;
21848;SDS011;11089;49.852;19.700;2022-07-31T17:41:34;10.88;;;6.65;;
21848;SDS011;11089;49.852;19.700;2022-07-31T17:44:35;7.43;;;6.22;;
21848;SDS011;11089;49.852;19.700;2022-07-31T17:47:37;6.68;;;5.93;;
21848;SDS011;11089;49.852;19.700;2022-07-31T17:50:38;6.93;;;6.00;;
21848;SDS011;11089;49.852;19.700;2022-07-31T17:53:39;8.63;;;6.15;;
21848;SDS011;11089;49.852;19.700;2022-07-31T17:56:40;10.60;;;5.90;;
21848;SDS011;11089;49.852;19.700;2022-07-31T17:59:41;9.07;;;6.03;;
21848;SDS011;11089;49.852;19.700;2022-07-31T18:02:42;7.03;;;5.85;;
21848;SDS011;11089;49.852;19.700;2022-07-31T18:05:43;5.95;;;4.90;;
21848;SDS011;11089;49.852;19.700;2022-07-31T18:08:44;6.60;;;4.75;;
21848;SDS011;11089;49.852;19.700;2022-07-31T18:11:45;6.65;;;5.53;;
21848;SDS011;11089;49.852;19.700;2022-07-31T18:14:46;8.00;;;5.50;;
21848;SDS011;11089;49.852;19.700;2022-07-31T18:17:47;7.93;;;5.38;;